Cascade Locks, OR (97014)

8:52 PM PDT on August 22, 2014 (GMT -0700)
MesoWest WYETH OR US UPR | Change Station
CLOSE
Current Station
Personal Weather Station
Location: Cascade Locks, OR
Elevation: 102 ft
Nearby Weather Stations

Elev 102 ft 45.69 °N, 121.70 °W | Updated 52 minutes ago

Clear
Clear
74.0 °F
Feels Like 74.0 °F
N
-
Wind Variable Wind from North

Today
High -- | Low -- °F
--% Chance of Precip.
Yesterday
High -- | Low -- °F
Precip. -- in
6:16 AM 8:03 PM
Waning Crescent, 5% visible
Pressure 30.00 in
Visibility 10.0 miles
Clouds Clear
Dew Point Not available.
Humidity Not available.
Rainfall -999.00 in
Snow Depth 1 in , 1 in , 0 in
UV 0 out of 12
Pollen 3.50 out of 12
Air Quality Not available.
Flu Activity Not available.
METAR KTTD 230253Z VRB04KT 10SM CLR 24/12 A3000 RMK AO2 SLP158 T02440122 53005

More Conditions Fewer Conditions

Pressure 30.00 in
Visibility 10.0 miles
Clouds Clear
Dew Point Not available.
Humidity Not available.
Rainfall -999.00 in
Snow Depth 1 in , 1 in , 0 in
UV 0 out of 12
Pollen 3.50 out of 12
Air Quality Not available.
Flu Activity Not available.
METAR KTTD 230253Z VRB04KT 10SM CLR 24/12 A3000 RMK AO2 SLP158 T02440122 53005

More Conditions Fewer Conditions

10-Day Weather Forecast

Almanac

Astronomy

Aug. 22, 2014 Rise Set
Actual Time 6:16 AM PDT 8:03 PM PDT
Civil Twilight 5:44 AM PDT 8:34 PM PDT
Nautical Twilight 5:05 AM PDT 9:13 PM PDT
Astronomical Twilight 4:23 AM PDT 9:54 PM PDT
Moon 3:39 AM PDT (8/22) 6:17 PM PDT (8/22)
Length of Visible Light 14h 49m
Length of Day
13h 46m
Tomorrow will be 2m 59s shorter.
Waning Crescent, 5% of the Moon is Illuminated
Today
Waning Crescent
Aug 25
New
Sep 2
First Quarter
Sep 8
Full
Sep 15
Last Quarter

Today's Extremes

State Highs State Lows

Community

WunderPhotos

Upload Photos

1,746,352 photos uploaded!

WunderBlogs® & News

Nearby

Snow Depth

Station Depth Elevation
Greenpoint 1 in 3200 ft
North Fork 1 in 3120 ft
Blazed Alder 0 in 3650 ft
Mud Ridge 0 in 3800 ft
Clear Lake 1 in 3500 ft

Earthquake Activity

City Distance Mag. Time & Date
No recent earthquake activity has been reported nearby.
Minimum magnitude displayed is 2.5.

Coastal Water Temperatures

Place Temperature
No Stations Reporting

Nearby Weather Stations